sensor_id;sensor_type;location;lat;lon;timestamp;P1;durP1;ratioP1;P2;durP2;ratioP2
7817;SDS011;3954;52.624;9.212;2022-09-23T00:00:02;2.93;;;2.63;;
7817;SDS011;3954;52.624;9.212;2022-09-23T00:02:28;3.63;;;3.30;;
7817;SDS011;3954;52.624;9.212;2022-09-23T00:04:54;3.40;;;3.10;;
7817;SDS011;3954;52.624;9.212;2022-09-23T00:07:20;3.17;;;2.67;;
7817;SDS011;3954;52.624;9.212;2022-09-23T00:09:46;3.73;;;2.47;;
7817;SDS011;3954;52.624;9.212;2022-09-23T00:12:12;2.80;;;2.53;;
7817;SDS011;3954;52.624;9.212;2022-09-23T00:14:38;3.20;;;2.90;;
7817;SDS011;3954;52.624;9.212;2022-09-23T00:17:05;9.17;;;8.27;;
7817;SDS011;3954;52.624;9.212;2022-09-23T00:19:31;7.00;;;5.10;;
7817;SDS011;3954;52.624;9.212;2022-09-23T00:21:57;3.50;;;3.10;;
7817;SDS011;3954;52.624;9.212;2022-09-23T00:24:23;3.43;;;2.87;;
7817;SDS011;3954;52.624;9.212;2022-09-23T00:26:49;4.53;;;2.67;;
7817;SDS011;3954;52.624;9.212;2022-09-23T00:29:15;3.90;;;3.00;;
7817;SDS011;3954;52.624;9.212;2022-09-23T00:31:41;3.10;;;2.80;;
7817;SDS011;3954;52.624;9.212;2022-09-23T00:34:09;3.87;;;3.00;;
7817;SDS011;3954;52.624;9.212;2022-09-23T00:36:35;3.93;;;2.83;;
7817;SDS011;3954;52.624;9.212;2022-09-23T00:39:02;2.70;;;2.50;;
7817;SDS011;3954;52.624;9.212;2022-09-23T00:41:28;3.23;;;2.87;;
7817;SDS011;3954;52.624;9.212;2022-09-23T00:43:55;3.47;;;2.80;;
7817;SDS011;3954;52.624;9.212;2022-09-23T00:46:22;2.90;;;2.70;;
7817;SDS011;3954;52.624;9.212;2022-09-23T00:48:51;3.33;;;2.37;;
7817;SDS011;3954;52.624;9.212;2022-09-23T00:51:21;4.03;;;2.67;;
7817;SDS011;3954;52.624;9.212;2022-09-23T00:53:48;3.77;;;3.40;;
7817;SDS011;3954;52.624;9.212;2022-09-23T00:56:15;4.00;;;3.07;;
7817;SDS011;3954;52.624;9.212;2022-09-23T00:58:44;3.37;;;2.60;;
7817;SDS011;3954;52.624;9.212;2022-09-23T01:01:11;4.90;;;3.07;;
7817;SDS011;3954;52.624;9.212;2022-09-23T01:03:38;4.60;;;2.97;;
7817;SDS011;3954;52.624;9.212;2022-09-23T01:06:05;2.70;;;2.50;;
7817;SDS011;3954;52.624;9.212;2022-09-23T01:08:32;5.93;;;5.33;;
7817;SDS011;3954;52.624;9.212;2022-09-23T01:11:01;5.37;;;4.87;;
7817;SDS011;3954;52.624;9.212;2022-09-23T01:13:30;3.60;;;3.17;;
7817;SDS011;3954;52.624;9.212;2022-09-23T01:16:00;3.20;;;2.90;;
7817;SDS011;3954;52.624;9.212;2022-09-23T01:18:31;2.80;;;2.50;;
7817;SDS011;3954;52.624;9.212;2022-09-23T01:21:08;3.47;;;3.00;;
7817;SDS011;3954;52.624;9.212;2022-09-23T01:23:45;3.43;;;2.77;;
7817;SDS011;3954;52.624;9.212;2022-09-23T01:26:20;2.83;;;2.53;;
7817;SDS011;3954;52.624;9.212;2022-09-23T01:28:57;3.10;;;2.70;;
7817;SDS011;3954;52.624;9.212;2022-09-23T01:31:28;2.53;;;2.33;;
7817;SDS011;3954;52.624;9.212;2022-09-23T01:33:57;2.47;;;2.27;;
7817;SDS011;3954;52.624;9.212;2022-09-23T01:36:29;3.20;;;2.43;;
7817;SDS011;3954;52.624;9.212;2022-09-23T01:38:58;2.47;;;2.27;;
7817;SDS011;3954;52.624;9.212;2022-09-23T01:41:30;2.80;;;2.50;;
7817;SDS011;3954;52.624;9.212;2022-09-23T01:43:59;2.40;;;2.20;;
7817;SDS011;3954;52.624;9.212;2022-09-23T01:46:29;3.83;;;2.83;;
7817;SDS011;3954;52.624;9.212;2022-09-23T01:48:58;4.00;;;2.80;;
7817;SDS011;3954;52.624;9.212;2022-09-23T01:51:27;3.30;;;3.00;;
7817;SDS011;3954;52.624;9.212;2022-09-23T01:53:56;3.30;;;2.40;;
7817;SDS011;3954;52.624;9.212;2022-09-23T01:56:26;2.60;;;2.40;;
7817;SDS011;3954;52.624;9.212;2022-09-23T01:58:55;3.23;;;2.33;;
7817;SDS011;3954;52.624;9.212;2022-09-23T02:01:22;3.03;;;2.20;;
7817;SDS011;3954;52.624;9.212;2022-09-23T02:03:54;2.80;;;2.40;;
7817;SDS011;3954;52.624;9.212;2022-09-23T02:06:24;4.50;;;3.00;;
7817;SDS011;3954;52.624;9.212;2022-09-23T02:08:53;2.97;;;2.47;;
7817;SDS011;3954;52.624;9.212;2022-09-23T02:11:20;3.33;;;2.37;;
7817;SDS011;3954;52.624;9.212;2022-09-23T02:13:48;2.83;;;2.40;;
7817;SDS011;3954;52.624;9.212;2022-09-23T02:16:19;2.83;;;2.50;;
7817;SDS011;3954;52.624;9.212;2022-09-23T02:18:49;2.50;;;2.30;;
7817;SDS011;3954;52.624;9.212;2022-09-23T02:21:18;3.03;;;2.50;;
7817;SDS011;3954;52.624;9.212;2022-09-23T02:23:47;2.57;;;2.37;;
7817;SDS011;3954;52.624;9.212;2022-09-23T02:26:16;2.70;;;2.50;;
7817;SDS011;3954;52.624;9.212;2022-09-23T02:28:46;2.70;;;2.50;;
7817;SDS011;3954;52.624;9.212;2022-09-23T02:31:15;2.60;;;2.40;;
7817;SDS011;3954;52.624;9.212;2022-09-23T02:33:49;2.50;;;2.30;;
7817;SDS011;3954;52.624;9.212;2022-09-23T02:36:21;2.53;;;2.30;;
7817;SDS011;3954;52.624;9.212;2022-09-23T02:38:51;2.70;;;2.47;;
7817;SDS011;3954;52.624;9.212;2022-09-23T02:41:19;2.37;;;2.17;;
7817;SDS011;3954;52.624;9.212;2022-09-23T02:43:46;2.70;;;2.50;;
7817;SDS011;3954;52.624;9.212;2022-09-23T02:46:14;2.73;;;2.30;;
7817;SDS011;3954;52.624;9.212;2022-09-23T02:48:41;2.23;;;2.03;;
7817;SDS011;3954;52.624;9.212;2022-09-23T02:51:08;2.33;;;2.10;;
7817;SDS011;3954;52.624;9.212;2022-09-23T02:53:36;2.70;;;2.33;;
7817;SDS011;3954;52.624;9.212;2022-09-23T02:56:10;2.60;;;2.40;;
7817;SDS011;3954;52.624;9.212;2022-09-23T02:58:38;2.73;;;2.20;;
7817;SDS011;3954;52.624;9.212;2022-09-23T03:01:05;2.40;;;2.20;;
7817;SDS011;3954;52.624;9.212;2022-09-23T03:03:35;2.47;;;2.13;;
7817;SDS011;3954;52.624;9.212;2022-09-23T03:06:06;2.63;;;2.20;;
7817;SDS011;3954;52.624;9.212;2022-09-23T03:08:40;2.57;;;2.37;;
7817;SDS011;3954;52.624;9.212;2022-09-23T03:11:08;2.53;;;2.33;;
7817;SDS011;3954;52.624;9.212;2022-09-23T03:13:38;3.37;;;2.37;;
7817;SDS011;3954;52.624;9.212;2022-09-23T03:16:08;2.60;;;2.40;;
7817;SDS011;3954;52.624;9.212;2022-09-23T03:18:37;3.83;;;2.47;;
7817;SDS011;3954;52.624;9.212;2022-09-23T03:21:05;3.70;;;3.00;;
7817;SDS011;3954;52.624;9.212;2022-09-23T03:23:32;2.77;;;2.57;;
7817;SDS011;3954;52.624;9.212;2022-09-23T03:26:01;2.83;;;2.40;;
7817;SDS011;3954;52.624;9.212;2022-09-23T03:28:29;2.50;;;2.30;;
7817;SDS011;3954;52.624;9.212;2022-09-23T03:30:57;4.47;;;2.70;;
7817;SDS011;3954;52.624;9.212;2022-09-23T03:33:24;2.57;;;2.13;;
7817;SDS011;3954;52.624;9.212;2022-09-23T03:35:54;3.63;;;2.43;;
7817;SDS011;3954;52.624;9.212;2022-09-23T03:38:42;4.60;;;2.20;;
7817;SDS011;3954;52.624;9.212;2022-09-23T03:41:10;2.43;;;2.23;;
7817;SDS011;3954;52.624;9.212;2022-09-23T03:43:40;2.80;;;2.60;;
7817;SDS011;3954;52.624;9.212;2022-09-23T03:46:07;2.67;;;2.43;;
7817;SDS011;3954;52.624;9.212;2022-09-23T03:48:33;2.37;;;2.17;;
7817;SDS011;3954;52.624;9.212;2022-09-23T03:50:59;2.40;;;2.20;;
7817;SDS011;3954;52.624;9.212;2022-09-23T03:53:29;2.40;;;2.20;;
7817;SDS011;3954;52.624;9.212;2022-09-23T03:55:55;2.30;;;2.10;;
7817;SDS011;3954;52.624;9.212;2022-09-23T03:58:23;6.23;;;2.20;;
7817;SDS011;3954;52.624;9.212;2022-09-23T04:00:49;2.30;;;2.10;;
7817;SDS011;3954;52.624;9.212;2022-09-23T04:03:15;2.40;;;2.20;;
7817;SDS011;3954;52.624;9.212;2022-09-23T04:05:43;2.87;;;2.27;;
7817;SDS011;3954;52.624;9.212;2022-09-23T04:08:09;2.40;;;2.20;;
7817;SDS011;3954;52.624;9.212;2022-09-23T04:10:35;3.37;;;2.77;;
7817;SDS011;3954;52.624;9.212;2022-09-23T04:13:05;2.67;;;2.40;;
7817;SDS011;3954;52.624;9.212;2022-09-23T04:15:32;2.87;;;2.50;;
7817;SDS011;3954;52.624;9.212;2022-09-23T04:17:58;2.50;;;2.30;;
7817;SDS011;3954;52.624;9.212;2022-09-23T04:20:24;2.30;;;2.10;;
7817;SDS011;3954;52.624;9.212;2022-09-23T04:22:52;2.77;;;2.47;;
7817;SDS011;3954;52.624;9.212;2022-09-23T04:25:18;3.60;;;2.50;;
7817;SDS011;3954;52.624;9.212;2022-09-23T04:27:44;3.07;;;2.33;;
7817;SDS011;3954;52.624;9.212;2022-09-23T04:30:11;2.60;;;2.40;;
7817;SDS011;3954;52.624;9.212;2022-09-23T04:32:38;4.10;;;2.60;;
7817;SDS011;3954;52.624;9.212;2022-09-23T04:35:05;4.53;;;2.60;;
7817;SDS011;3954;52.624;9.212;2022-09-23T04:37:31;2.53;;;2.33;;
7817;SDS011;3954;52.624;9.212;2022-09-23T04:39:57;2.97;;;2.53;;
7817;SDS011;3954;52.624;9.212;2022-09-23T04:42:23;3.17;;;2.50;;
7817;SDS011;3954;52.624;9.212;2022-09-23T04:44:52;2.47;;;2.10;;
7817;SDS011;3954;52.624;9.212;2022-09-23T04:47:18;3.30;;;2.40;;
7817;SDS011;3954;52.624;9.212;2022-09-23T04:49:45;2.57;;;2.37;;
7817;SDS011;3954;52.624;9.212;2022-09-23T04:52:11;2.63;;;2.07;;
7817;SDS011;3954;52.624;9.212;2022-09-23T04:54:37;2.30;;;2.10;;
7817;SDS011;3954;52.624;9.212;2022-09-23T04:57:05;4.10;;;3.47;;
7817;SDS011;3954;52.624;9.212;2022-09-23T04:59:35;3.17;;;2.83;;
7817;SDS011;3954;52.624;9.212;2022-09-23T05:02:01;6.47;;;2.80;;
7817;SDS011;3954;52.624;9.212;2022-09-23T05:04:27;3.27;;;2.43;;
7817;SDS011;3954;52.624;9.212;2022-09-23T05:06:55;2.67;;;2.47;;
7817;SDS011;3954;52.624;9.212;2022-09-23T05:09:21;3.30;;;2.73;;
7817;SDS011;3954;52.624;9.212;2022-09-23T05:11:47;2.70;;;2.50;;
7817;SDS011;3954;52.624;9.212;2022-09-23T05:14:12;3.60;;;2.60;;
7817;SDS011;3954;52.624;9.212;2022-09-23T05:16:39;2.30;;;2.10;;
7817;SDS011;3954;52.624;9.212;2022-09-23T05:19:05;3.20;;;2.47;;
7817;SDS011;3954;52.624;9.212;2022-09-23T05:21:31;2.87;;;2.57;;
7817;SDS011;3954;52.624;9.212;2022-09-23T05:23:58;2.83;;;2.63;;
7817;SDS011;3954;52.624;9.212;2022-09-23T05:26:25;2.70;;;2.37;;
7817;SDS011;3954;52.624;9.212;2022-09-23T05:28:51;2.87;;;2.60;;
7817;SDS011;3954;52.624;9.212;2022-09-23T05:31:18;3.23;;;2.93;;
7817;SDS011;3954;52.624;9.212;2022-09-23T05:33:45;4.10;;;2.57;;
7817;SDS011;3954;52.624;9.212;2022-09-23T05:36:12;3.93;;;2.97;;
7817;SDS011;3954;52.624;9.212;2022-09-23T05:38:39;4.70;;;2.97;;
7817;SDS011;3954;52.624;9.212;2022-09-23T05:41:07;2.73;;;2.53;;
7817;SDS011;3954;52.624;9.212;2022-09-23T05:43:35;3.00;;;2.70;;
7817;SDS011;3954;52.624;9.212;2022-09-23T05:46:01;3.00;;;2.63;;
7817;SDS011;3954;52.624;9.212;2022-09-23T05:48:28;2.73;;;2.53;;
7817;SDS011;3954;52.624;9.212;2022-09-23T05:50:55;2.80;;;2.07;;
7817;SDS011;3954;52.624;9.212;2022-09-23T05:53:21;3.60;;;2.47;;
7817;SDS011;3954;52.624;9.212;2022-09-23T05:55:47;3.10;;;2.40;;
7817;SDS011;3954;52.624;9.212;2022-09-23T05:58:14;3.97;;;2.30;;
7817;SDS011;3954;52.624;9.212;2022-09-23T06:00:40;3.00;;;2.50;;
7817;SDS011;3954;52.624;9.212;2022-09-23T06:03:07;2.60;;;2.20;;
7817;SDS011;3954;52.624;9.212;2022-09-23T06:05:36;2.77;;;2.30;;
7817;SDS011;3954;52.624;9.212;2022-09-23T06:08:02;3.13;;;2.23;;
7817;SDS011;3954;52.624;9.212;2022-09-23T06:10:28;3.23;;;2.40;;
7817;SDS011;3954;52.624;9.212;2022-09-23T06:12:54;4.63;;;2.43;;
7817;SDS011;3954;52.624;9.212;2022-09-23T06:15:22;5.13;;;2.30;;
7817;SDS011;3954;52.624;9.212;2022-09-23T06:17:48;2.67;;;2.00;;
7817;SDS011;3954;52.624;9.212;2022-09-23T06:20:14;2.33;;;2.10;;
7817;SDS011;3954;52.624;9.212;2022-09-23T06:22:40;4.70;;;2.20;;
7817;SDS011;3954;52.624;9.212;2022-09-23T06:25:06;2.20;;;2.00;;
7817;SDS011;3954;52.624;9.212;2022-09-23T06:27:32;2.50;;;2.30;;
7817;SDS011;3954;52.624;9.212;2022-09-23T06:29:58;2.93;;;2.37;;
7817;SDS011;3954;52.624;9.212;2022-09-23T06:32:26;4.23;;;2.50;;
7817;SDS011;3954;52.624;9.212;2022-09-23T06:34:52;3.50;;;2.40;;
7817;SDS011;3954;52.624;9.212;2022-09-23T06:37:18;2.53;;;2.17;;
7817;SDS011;3954;52.624;9.212;2022-09-23T06:39:44;2.63;;;2.20;;
7817;SDS011;3954;52.624;9.212;2022-09-23T06:42:10;3.00;;;2.23;;
7817;SDS011;3954;52.624;9.212;2022-09-23T06:44:36;3.23;;;2.60;;
7817;SDS011;3954;52.624;9.212;2022-09-23T06:47:02;4.20;;;2.50;;
7817;SDS011;3954;52.624;9.212;2022-09-23T06:49:29;4.43;;;2.87;;
7817;SDS011;3954;52.624;9.212;2022-09-23T06:51:55;4.67;;;2.63;;
7817;SDS011;3954;52.624;9.212;2022-09-23T06:54:21;2.63;;;2.30;;
7817;SDS011;3954;52.624;9.212;2022-09-23T06:56:47;3.33;;;2.30;;
7817;SDS011;3954;52.624;9.212;2022-09-23T06:59:13;3.83;;;2.50;;
7817;SDS011;3954;52.624;9.212;2022-09-23T07:01:41;2.83;;;2.33;;
7817;SDS011;3954;52.624;9.212;2022-09-23T07:04:07;4.47;;;2.30;;
7817;SDS011;3954;52.624;9.212;2022-09-23T07:06:34;4.00;;;2.10;;
7817;SDS011;3954;52.624;9.212;2022-09-23T07:09:01;2.50;;;1.90;;
7817;SDS011;3954;52.624;9.212;2022-09-23T07:11:28;3.33;;;2.50;;
7817;SDS011;3954;52.624;9.212;2022-09-23T07:13:54;3.27;;;1.90;;
7817;SDS011;3954;52.624;9.212;2022-09-23T07:16:20;2.87;;;1.93;;
7817;SDS011;3954;52.624;9.212;2022-09-23T07:18:47;3.40;;;1.90;;
7817;SDS011;3954;52.624;9.212;2022-09-23T07:21:14;4.13;;;2.00;;
7817;SDS011;3954;52.624;9.212;2022-09-23T07:23:41;3.17;;;1.80;;
7817;SDS011;3954;52.624;9.212;2022-09-23T07:26:08;5.47;;;2.00;;
7817;SDS011;3954;52.624;9.212;2022-09-23T07:28:34;2.50;;;2.00;;
7817;SDS011;3954;52.624;9.212;2022-09-23T07:31:02;1.90;;;1.70;;
7817;SDS011;3954;52.624;9.212;2022-09-23T07:33:28;2.07;;;1.70;;
7817;SDS011;3954;52.624;9.212;2022-09-23T07:35:55;2.37;;;1.90;;
7817;SDS011;3954;52.624;9.212;2022-09-23T07:38:21;2.17;;;1.70;;
7817;SDS011;3954;52.624;9.212;2022-09-23T07:40:51;2.00;;;1.80;;
7817;SDS011;3954;52.624;9.212;2022-09-23T07:43:17;6.40;;;2.20;;
7817;SDS011;3954;52.624;9.212;2022-09-23T07:45:43;1.60;;;1.50;;
7817;SDS011;3954;52.624;9.212;2022-09-23T07:48:11;2.10;;;1.90;;
7817;SDS011;3954;52.624;9.212;2022-09-23T07:50:37;3.50;;;2.10;;
7817;SDS011;3954;52.624;9.212;2022-09-23T07:53:03;3.03;;;1.70;;
7817;SDS011;3954;52.624;9.212;2022-09-23T07:55:30;1.87;;;1.63;;
7817;SDS011;3954;52.624;9.212;2022-09-23T07:57:58;1.77;;;1.60;;
7817;SDS011;3954;52.624;9.212;2022-09-23T08:00:23;2.60;;;1.83;;
7817;SDS011;3954;52.624;9.212;2022-09-23T08:02:50;1.60;;;1.50;;
7817;SDS011;3954;52.624;9.212;2022-09-23T08:05:16;3.33;;;1.70;;
7817;SDS011;3954;52.624;9.212;2022-09-23T08:07:42;1.60;;;1.50;;
7817;SDS011;3954;52.624;9.212;2022-09-23T08:10:08;2.03;;;1.70;;
7817;SDS011;3954;52.624;9.212;2022-09-23T08:12:34;1.53;;;1.43;;
7817;SDS011;3954;52.624;9.212;2022-09-23T08:15:02;2.70;;;1.50;;
7817;SDS011;3954;52.624;9.212;2022-09-23T08:17:28;3.20;;;1.37;;
7817;SDS011;3954;52.624;9.212;2022-09-23T08:19:54;2.30;;;1.37;;
7817;SDS011;3954;52.624;9.212;2022-09-23T08:22:20;2.20;;;1.80;;
7817;SDS011;3954;52.624;9.212;2022-09-23T08:24:46;2.83;;;1.50;;
7817;SDS011;3954;52.624;9.212;2022-09-23T08:27:12;1.67;;;1.50;;
7817;SDS011;3954;52.624;9.212;2022-09-23T08:29:38;1.97;;;1.47;;
7817;SDS011;3954;52.624;9.212;2022-09-23T08:32:06;1.50;;;1.40;;
7817;SDS011;3954;52.624;9.212;2022-09-23T08:34:32;4.00;;;1.80;;
7817;SDS011;3954;52.624;9.212;2022-09-23T08:36:59;3.77;;;1.80;;
7817;SDS011;3954;52.624;9.212;2022-09-23T08:39:25;1.57;;;1.40;;
7817;SDS011;3954;52.624;9.212;2022-09-23T08:42:01;2.03;;;1.47;;
7817;SDS011;3954;52.624;9.212;2022-09-23T08:44:29;2.30;;;1.43;;
7817;SDS011;3954;52.624;9.212;2022-09-23T08:47:00;1.70;;;1.40;;
7817;SDS011;3954;52.624;9.212;2022-09-23T08:49:34;2.93;;;1.60;;
7817;SDS011;3954;52.624;9.212;2022-09-23T08:52:04;1.53;;;1.20;;
7817;SDS011;3954;52.624;9.212;2022-09-23T08:54:31;2.40;;;1.40;;
7817;SDS011;3954;52.624;9.212;2022-09-23T08:56:58;1.30;;;1.20;;
7817;SDS011;3954;52.624;9.212;2022-09-23T08:59:26;3.03;;;1.40;;
7817;SDS011;3954;52.624;9.212;2022-09-23T09:01:55;1.90;;;1.60;;
7817;SDS011;3954;52.624;9.212;2022-09-23T09:04:23;2.00;;;1.40;;
7817;SDS011;3954;52.624;9.212;2022-09-23T09:06:54;2.00;;;1.50;;
7817;SDS011;3954;52.624;9.212;2022-09-23T09:09:22;2.10;;;1.33;;
7817;SDS011;3954;52.624;9.212;2022-09-23T09:11:51;1.63;;;1.50;;
7817;SDS011;3954;52.624;9.212;2022-09-23T09:14:21;1.50;;;1.30;;
7817;SDS011;3954;52.624;9.212;2022-09-23T09:16:55;4.20;;;1.60;;
7817;SDS011;3954;52.624;9.212;2022-09-23T09:19:29;2.43;;;1.50;;
7817;SDS011;3954;52.624;9.212;2022-09-23T09:21:59;4.17;;;1.60;;
7817;SDS011;3954;52.624;9.212;2022-09-23T09:24:27;2.20;;;1.40;;
7817;SDS011;3954;52.624;9.212;2022-09-23T09:26:56;2.93;;;1.20;;
7817;SDS011;3954;52.624;9.212;2022-09-23T09:29:23;2.30;;;1.40;;
7817;SDS011;3954;52.624;9.212;2022-09-23T09:31:50;2.40;;;1.43;;
7817;SDS011;3954;52.624;9.212;2022-09-23T09:34:21;1.63;;;1.20;;
7817;SDS011;3954;52.624;9.212;2022-09-23T09:36:53;1.70;;;1.53;;
7817;SDS011;3954;52.624;9.212;2022-09-23T09:39:24;2.23;;;1.60;;
7817;SDS011;3954;52.624;9.212;2022-09-23T09:41:51;2.50;;;1.50;;
7817;SDS011;3954;52.624;9.212;2022-09-23T09:44:25;2.03;;;1.50;;
7817;SDS011;3954;52.624;9.212;2022-09-23T09:46:59;2.03;;;1.50;;
7817;SDS011;3954;52.624;9.212;2022-09-23T09:49:33;2.43;;;1.50;;
7817;SDS011;3954;52.624;9.212;2022-09-23T09:52:11;2.23;;;1.40;;
7817;SDS011;3954;52.624;9.212;2022-09-23T09:54:38;3.13;;;1.20;;
7817;SDS011;3954;52.624;9.212;2022-09-23T09:57:04;3.10;;;1.60;;
7817;SDS011;3954;52.624;9.212;2022-09-23T09:59:32;1.90;;;1.60;;
7817;SDS011;3954;52.624;9.212;2022-09-23T10:04:40;1.63;;;1.30;;
7817;SDS011;3954;52.624;9.212;2022-09-23T10:07:07;1.67;;;1.40;;
7817;SDS011;3954;52.624;9.212;2022-09-23T10:09:34;3.07;;;1.50;;
7817;SDS011;3954;52.624;9.212;2022-09-23T10:12:07;1.67;;;1.47;;
7817;SDS011;3954;52.624;9.212;2022-09-23T10:14:35;2.77;;;1.60;;
7817;SDS011;3954;52.624;9.212;2022-09-23T10:17:02;2.03;;;1.23;;
7817;SDS011;3954;52.624;9.212;2022-09-23T10:19:29;2.27;;;1.50;;
7817;SDS011;3954;52.624;9.212;2022-09-23T10:21:56;2.70;;;1.63;;
7817;SDS011;3954;52.624;9.212;2022-09-23T10:24:24;1.70;;;1.40;;
7817;SDS011;3954;52.624;9.212;2022-09-23T10:26:52;1.33;;;1.23;;
7817;SDS011;3954;52.624;9.212;2022-09-23T10:29:23;1.70;;;1.60;;
7817;SDS011;3954;52.624;9.212;2022-09-23T10:31:50;3.83;;;1.30;;
7817;SDS011;3954;52.624;9.212;2022-09-23T10:34:39;1.60;;;1.27;;
7817;SDS011;3954;52.624;9.212;2022-09-23T10:37:08;1.90;;;1.40;;
7817;SDS011;3954;52.624;9.212;2022-09-23T10:39:38;2.33;;;1.50;;
7817;SDS011;3954;52.624;9.212;2022-09-23T10:42:25;3.90;;;1.70;;
7817;SDS011;3954;52.624;9.212;2022-09-23T10:45:16;2.47;;;1.60;;
7817;SDS011;3954;52.624;9.212;2022-09-23T10:48:03;2.47;;;1.50;;
7817;SDS011;3954;52.624;9.212;2022-09-23T10:50:36;2.60;;;1.50;;
7817;SDS011;3954;52.624;9.212;2022-09-23T10:53:08;1.93;;;1.43;;
7817;SDS011;3954;52.624;9.212;2022-09-23T10:55:41;2.47;;;1.40;;
7817;SDS011;3954;52.624;9.212;2022-09-23T10:58:16;1.70;;;1.17;;
7817;SDS011;3954;52.624;9.212;2022-09-23T11:00:46;1.67;;;1.40;;
7817;SDS011;3954;52.624;9.212;2022-09-23T11:06:16;1.30;;;1.20;;
7817;SDS011;3954;52.624;9.212;2022-09-23T11:08:56;3.10;;;1.47;;
7817;SDS011;3954;52.624;9.212;2022-09-23T11:11:31;2.27;;;1.40;;
7817;SDS011;3954;52.624;9.212;2022-09-23T11:14:02;3.13;;;1.30;;
7817;SDS011;3954;52.624;9.212;2022-09-23T11:16:35;1.40;;;1.30;;
7817;SDS011;3954;52.624;9.212;2022-09-23T11:19:21;5.23;;;1.57;;
7817;SDS011;3954;52.624;9.212;2022-09-23T11:22:00;2.23;;;1.80;;
7817;SDS011;3954;52.624;9.212;2022-09-23T11:24:38;2.63;;;1.80;;
7817;SDS011;3954;52.624;9.212;2022-09-23T11:27:07;3.80;;;1.50;;
7817;SDS011;3954;52.624;9.212;2022-09-23T11:32:22;2.03;;;1.50;;
7817;SDS011;3954;52.624;9.212;2022-09-23T11:34:59;1.80;;;1.40;;
7817;SDS011;3954;52.624;9.212;2022-09-23T11:37:28;1.93;;;1.50;;
7817;SDS011;3954;52.624;9.212;2022-09-23T11:39:56;2.13;;;1.67;;
7817;SDS011;3954;52.624;9.212;2022-09-23T11:42:28;3.40;;;1.80;;
7817;SDS011;3954;52.624;9.212;2022-09-23T11:44:56;3.97;;;1.63;;
7817;SDS011;3954;52.624;9.212;2022-09-23T11:47:23;2.87;;;1.70;;
7817;SDS011;3954;52.624;9.212;2022-09-23T11:49:52;3.83;;;1.83;;
7817;SDS011;3954;52.624;9.212;2022-09-23T11:52:20;1.90;;;1.50;;
7817;SDS011;3954;52.624;9.212;2022-09-23T11:54:50;3.93;;;1.70;;
7817;SDS011;3954;52.624;9.212;2022-09-23T11:57:18;2.90;;;1.60;;
7817;SDS011;3954;52.624;9.212;2022-09-23T11:59:45;2.67;;;1.77;;
7817;SDS011;3954;52.624;9.212;2022-09-23T12:02:15;3.93;;;1.97;;
7817;SDS011;3954;52.624;9.212;2022-09-23T12:04:45;1.87;;;1.40;;
7817;SDS011;3954;52.624;9.212;2022-09-23T12:07:13;2.33;;;1.50;;
7817;SDS011;3954;52.624;9.212;2022-09-23T12:09:42;1.50;;;1.40;;
7817;SDS011;3954;52.624;9.212;2022-09-23T12:12:12;2.17;;;1.57;;
7817;SDS011;3954;52.624;9.212;2022-09-23T12:14:51;2.33;;;1.60;;
7817;SDS011;3954;52.624;9.212;2022-09-23T12:17:23;3.23;;;1.70;;
7817;SDS011;3954;52.624;9.212;2022-09-23T12:19:56;3.63;;;1.70;;
7817;SDS011;3954;52.624;9.212;2022-09-23T12:22:33;1.97;;;1.50;;
7817;SDS011;3954;52.624;9.212;2022-09-23T12:25:07;1.77;;;1.50;;
7817;SDS011;3954;52.624;9.212;2022-09-23T12:27:38;2.40;;;1.50;;
7817;SDS011;3954;52.624;9.212;2022-09-23T12:30:11;3.63;;;1.70;;
7817;SDS011;3954;52.624;9.212;2022-09-23T12:32:41;3.07;;;1.63;;
7817;SDS011;3954;52.624;9.212;2022-09-23T12:35:17;2.77;;;1.70;;
7817;SDS011;3954;52.624;9.212;2022-09-23T12:37:46;2.27;;;1.80;;
7817;SDS011;3954;52.624;9.212;2022-09-23T12:40:15;3.50;;;1.50;;
7817;SDS011;3954;52.624;9.212;2022-09-23T12:42:44;2.00;;;1.50;;
7817;SDS011;3954;52.624;9.212;2022-09-23T12:45:16;3.67;;;1.50;;
7817;SDS011;3954;52.624;9.212;2022-09-23T12:47:43;2.67;;;1.70;;
7817;SDS011;3954;52.624;9.212;2022-09-23T12:52:54;2.43;;;1.60;;
7817;SDS011;3954;52.624;9.212;2022-09-23T12:58:19;3.90;;;1.80;;
7817;SDS011;3954;52.624;9.212;2022-09-23T13:01:04;1.77;;;1.60;;
7817;SDS011;3954;52.624;9.212;2022-09-23T13:03:31;2.63;;;1.43;;
7817;SDS011;3954;52.624;9.212;2022-09-23T13:06:16;2.90;;;1.70;;
7817;SDS011;3954;52.624;9.212;2022-09-23T13:09:02;4.90;;;1.60;;
7817;SDS011;3954;52.624;9.212;2022-09-23T13:11:31;1.87;;;1.67;;
7817;SDS011;3954;52.624;9.212;2022-09-23T13:13:59;2.23;;;1.53;;
7817;SDS011;3954;52.624;9.212;2022-09-23T13:16:28;2.70;;;1.60;;
7817;SDS011;3954;52.624;9.212;2022-09-23T13:18:55;3.40;;;1.63;;
7817;SDS011;3954;52.624;9.212;2022-09-23T13:24:16;2.80;;;2.00;;
7817;SDS011;3954;52.624;9.212;2022-09-23T13:26:43;1.97;;;1.60;;
7817;SDS011;3954;52.624;9.212;2022-09-23T13:29:13;2.37;;;1.73;;
7817;SDS011;3954;52.624;9.212;2022-09-23T13:31:41;3.23;;;1.73;;
7817;SDS011;3954;52.624;9.212;2022-09-23T13:34:09;4.23;;;1.83;;
7817;SDS011;3954;52.624;9.212;2022-09-23T13:36:41;2.03;;;1.83;;
7817;SDS011;3954;52.624;9.212;2022-09-23T13:39:14;2.70;;;1.63;;
7817;SDS011;3954;52.624;9.212;2022-09-23T13:41:41;3.10;;;2.00;;
7817;SDS011;3954;52.624;9.212;2022-09-23T13:44:08;3.33;;;1.60;;
7817;SDS011;3954;52.624;9.212;2022-09-23T13:46:40;6.03;;;1.70;;
7817;SDS011;3954;52.624;9.212;2022-09-23T13:49:17;2.03;;;1.67;;
7817;SDS011;3954;52.624;9.212;2022-09-23T13:51:44;3.50;;;1.70;;
7817;SDS011;3954;52.624;9.212;2022-09-23T13:54:22;3.03;;;1.90;;
7817;SDS011;3954;52.624;9.212;2022-09-23T13:56:49;2.07;;;1.60;;
7817;SDS011;3954;52.624;9.212;2022-09-23T13:59:19;1.87;;;1.50;;
7817;SDS011;3954;52.624;9.212;2022-09-23T14:01:48;2.30;;;1.80;;
7817;SDS011;3954;52.624;9.212;2022-09-23T14:04:21;1.90;;;1.70;;
7817;SDS011;3954;52.624;9.212;2022-09-23T14:06:48;2.60;;;1.90;;
7817;SDS011;3954;52.624;9.212;2022-09-23T14:09:14;5.67;;;2.50;;
7817;SDS011;3954;52.624;9.212;2022-09-23T14:11:40;2.43;;;1.90;;
7817;SDS011;3954;52.624;9.212;2022-09-23T14:14:06;2.03;;;1.77;;
7817;SDS011;3954;52.624;9.212;2022-09-23T14:16:34;2.33;;;1.80;;
7817;SDS011;3954;52.624;9.212;2022-09-23T14:19:02;1.87;;;1.67;;
7817;SDS011;3954;52.624;9.212;2022-09-23T14:21:30;2.00;;;1.50;;
7817;SDS011;3954;52.624;9.212;2022-09-23T14:24:03;2.90;;;1.60;;
7817;SDS011;3954;52.624;9.212;2022-09-23T14:26:29;2.30;;;1.53;;
7817;SDS011;3954;52.624;9.212;2022-09-23T14:28:55;2.90;;;1.40;;
7817;SDS011;3954;52.624;9.212;2022-09-23T14:31:21;4.30;;;1.90;;
7817;SDS011;3954;52.624;9.212;2022-09-23T14:33:48;1.70;;;1.60;;
7817;SDS011;3954;52.624;9.212;2022-09-23T14:36:15;2.23;;;1.30;;
7817;SDS011;3954;52.624;9.212;2022-09-23T14:39:02;2.17;;;1.63;;
7817;SDS011;3954;52.624;9.212;2022-09-23T14:41:28;3.13;;;1.60;;
7817;SDS011;3954;52.624;9.212;2022-09-23T14:43:59;2.23;;;1.70;;
7817;SDS011;3954;52.624;9.212;2022-09-23T14:46:25;2.10;;;1.50;;
7817;SDS011;3954;52.624;9.212;2022-09-23T14:48:59;2.53;;;1.60;;
7817;SDS011;3954;52.624;9.212;2022-09-23T14:51:31;3.23;;;1.70;;
7817;SDS011;3954;52.624;9.212;2022-09-23T14:56:43;2.50;;;1.60;;
7817;SDS011;3954;52.624;9.212;2022-09-23T14:59:18;1.60;;;1.50;;
7817;SDS011;3954;52.624;9.212;2022-09-23T15:01:47;2.30;;;1.60;;
7817;SDS011;3954;52.624;9.212;2022-09-23T15:04:14;2.70;;;1.57;;
7817;SDS011;3954;52.624;9.212;2022-09-23T15:06:43;5.33;;;1.70;;
7817;SDS011;3954;52.624;9.212;2022-09-23T15:09:10;1.67;;;1.50;;
7817;SDS011;3954;52.624;9.212;2022-09-23T15:11:41;1.73;;;1.63;;
7817;SDS011;3954;52.624;9.212;2022-09-23T15:14:07;2.47;;;1.60;;
7817;SDS011;3954;52.624;9.212;2022-09-23T15:16:34;2.73;;;2.47;;
7817;SDS011;3954;52.624;9.212;2022-09-23T15:19:00;2.50;;;1.60;;
7817;SDS011;3954;52.624;9.212;2022-09-23T15:21:29;2.13;;;1.70;;
7817;SDS011;3954;52.624;9.212;2022-09-23T15:23:59;3.20;;;1.40;;
7817;SDS011;3954;52.624;9.212;2022-09-23T15:26:39;3.60;;;3.27;;
7817;SDS011;3954;52.624;9.212;2022-09-23T15:29:06;3.20;;;1.70;;
7817;SDS011;3954;52.624;9.212;2022-09-23T15:31:33;1.97;;;1.60;;
7817;SDS011;3954;52.624;9.212;2022-09-23T15:33:58;2.33;;;1.70;;
7817;SDS011;3954;52.624;9.212;2022-09-23T15:36:25;2.63;;;1.67;;
7817;SDS011;3954;52.624;9.212;2022-09-23T15:38:54;2.27;;;1.50;;
7817;SDS011;3954;52.624;9.212;2022-09-23T15:41:22;2.20;;;1.70;;
7817;SDS011;3954;52.624;9.212;2022-09-23T15:43:48;1.87;;;1.70;;